createdAt,value
2022-07-25T00:00:49.347Z,954.65
2022-07-25T00:01:49.376Z,954.63
2022-07-25T00:02:49.336Z,954.63
2022-07-25T00:03:49.360Z,954.62
2022-07-25T00:04:49.463Z,954.62
2022-07-25T00:05:49.327Z,954.63
2022-07-25T00:06:49.319Z,954.6
2022-07-25T00:07:49.318Z,954.54
2022-07-25T00:08:49.310Z,954.58
2022-07-25T00:09:49.309Z,954.55
2022-07-25T00:10:49.305Z,954.55
2022-07-25T00:11:49.301Z,954.58
2022-07-25T00:12:49.297Z,954.55
2022-07-25T00:13:49.294Z,954.54
2022-07-25T00:14:49.287Z,954.57
2022-07-25T00:15:49.346Z,954.53
2022-07-25T00:16:49.284Z,954.54
2022-07-25T00:17:49.277Z,954.53
2022-07-25T00:18:49.271Z,954.55
2022-07-25T00:19:49.264Z,954.54
2022-07-25T00:20:49.263Z,954.52
2022-07-25T00:21:49.256Z,954.53
2022-07-25T00:22:49.252Z,954.51
2022-07-25T00:23:49.249Z,954.5
2022-07-25T00:24:49.245Z,954.47
2022-07-25T00:25:49.239Z,954.49
2022-07-25T00:26:49.236Z,954.5
2022-07-25T00:27:49.230Z,954.51
2022-07-25T00:28:49.231Z,954.52
2022-07-25T00:29:49.223Z,954.52
2022-07-25T00:30:49.294Z,954.5
2022-07-25T00:31:49.241Z,954.51
2022-07-25T00:32:49.214Z,954.51
2022-07-25T00:33:49.207Z,954.45
2022-07-25T00:34:49.206Z,954.46
2022-07-25T00:35:49.196Z,954.47
2022-07-25T00:36:49.194Z,954.43
2022-07-25T00:37:49.723Z,954.44
2022-07-25T00:38:49.720Z,954.4
2022-07-25T00:39:49.709Z,954.43
2022-07-25T00:40:54.350Z,954.41
2022-07-25T00:41:49.703Z,954.45
2022-07-25T00:42:49.699Z,954.44
2022-07-25T00:43:49.692Z,954.42
2022-07-25T00:44:49.690Z,954.39
2022-07-25T00:45:49.687Z,954.38
2022-07-25T00:46:49.729Z,954.38
2022-07-25T00:47:49.674Z,954.37
2022-07-25T00:48:49.720Z,954.39
2022-07-25T00:49:49.669Z,954.35
2022-07-25T00:50:49.665Z,954.34
2022-07-25T00:51:49.659Z,954.34
2022-07-25T00:52:49.655Z,954.32
2022-07-25T00:53:49.651Z,954.29
2022-07-25T00:54:49.653Z,954.33
2022-07-25T00:55:49.641Z,954.3
2022-07-25T00:56:49.638Z,954.28
2022-07-25T00:57:49.633Z,954.29
2022-07-25T00:58:49.638Z,954.28
2022-07-25T00:59:49.624Z,954.31
2022-07-25T01:00:49.622Z,954.28
2022-07-25T01:01:49.700Z,954.27
2022-07-25T01:02:49.629Z,954.27
2022-07-25T01:03:49.607Z,954.24
2022-07-25T01:04:49.605Z,954.26
2022-07-25T01:05:53.481Z,954.28
2022-07-25T01:06:49.597Z,954.29
2022-07-25T01:07:49.590Z,954.25
2022-07-25T01:08:49.586Z,954.26
2022-07-25T01:09:49.580Z,954.26
2022-07-25T01:10:49.575Z,954.24
2022-07-25T01:11:49.575Z,954.26
2022-07-25T01:12:49.567Z,954.23
2022-07-25T01:13:49.565Z,954.23
2022-07-25T01:14:49.559Z,954.22
2022-07-25T01:15:49.594Z,954.24
2022-07-25T01:16:49.550Z,954.17
2022-07-25T01:17:49.548Z,954.18
2022-07-25T01:18:49.542Z,954.19
2022-07-25T01:19:49.540Z,954.18
2022-07-25T01:20:49.533Z,954.21
2022-07-25T01:21:49.532Z,954.18
2022-07-25T01:22:49.526Z,954.15
2022-07-25T01:23:49.523Z,954.19
2022-07-25T01:24:49.516Z,954.15
2022-07-25T01:25:49.514Z,954.15
2022-07-25T01:26:49.507Z,954.14
2022-07-25T01:27:54.593Z,954.17
2022-07-25T01:28:49.499Z,954.16
2022-07-25T01:29:49.495Z,954.13
2022-07-25T01:30:49.540Z,954.1
2022-07-25T01:31:49.488Z,954.12
2022-07-25T01:32:49.485Z,954.08
2022-07-25T01:33:49.479Z,954.07
2022-07-25T01:34:49.473Z,954.05
2022-07-25T01:35:49.470Z,954.05
2022-07-25T01:36:49.466Z,954.02
2022-07-25T01:37:49.462Z,953.98
2022-07-25T01:38:49.454Z,953.99
2022-07-25T01:39:49.453Z,954
2022-07-25T01:40:49.445Z,953.98
2022-07-25T01:41:49.444Z,953.97
2022-07-25T01:42:49.435Z,954.01
2022-07-25T01:43:49.433Z,953.95
2022-07-25T01:44:49.429Z,953.99
2022-07-25T01:45:49.444Z,953.97
2022-07-25T01:46:49.527Z,953.95
2022-07-25T01:47:49.415Z,953.96
2022-07-25T01:48:49.443Z,953.96
2022-07-25T01:49:49.408Z,953.95
2022-07-25T01:50:49.404Z,953.93
2022-07-25T01:51:49.401Z,953.95
2022-07-25T01:52:49.394Z,953.92
2022-07-25T01:53:49.391Z,953.91
2022-07-25T01:54:49.386Z,953.87
2022-07-25T01:55:49.382Z,953.88
2022-07-25T01:56:49.375Z,953.84
2022-07-25T01:57:50.087Z,953.86
2022-07-25T01:58:49.367Z,953.84
2022-07-25T01:59:49.364Z,953.84
2022-07-25T02:00:49.360Z,953.84
2022-07-25T02:01:49.444Z,953.83
2022-07-25T02:02:49.352Z,953.84
2022-07-25T02:03:49.345Z,953.77
2022-07-25T02:04:49.417Z,953.75
2022-07-25T02:05:49.334Z,953.77
2022-07-25T02:06:49.333Z,953.73
2022-07-25T02:07:49.327Z,953.73
2022-07-25T02:08:49.326Z,953.68
2022-07-25T02:09:52.158Z,953.68
2022-07-25T02:10:49.312Z,953.7
2022-07-25T02:11:49.308Z,953.72
2022-07-25T02:12:49.307Z,953.67
2022-07-25T02:13:49.298Z,953.73
2022-07-25T02:14:49.294Z,953.69
2022-07-25T02:15:49.290Z,953.69
2022-07-25T02:16:49.336Z,953.71
2022-07-25T02:17:49.286Z,953.65
2022-07-25T02:18:49.280Z,953.67
2022-07-25T02:19:49.276Z,953.63
2022-07-25T02:20:49.267Z,953.63
2022-07-25T02:21:49.261Z,953.64
2022-07-25T02:22:49.259Z,953.6
2022-07-25T02:23:49.253Z,953.64
2022-07-25T02:24:49.249Z,953.63
2022-07-25T02:25:49.244Z,953.61
2022-07-25T02:26:49.243Z,953.61
2022-07-25T02:27:49.240Z,953.64
2022-07-25T02:28:49.234Z,953.59
2022-07-25T02:29:49.226Z,953.58
2022-07-25T02:30:49.273Z,953.58
2022-07-25T02:31:49.217Z,953.58
2022-07-25T02:32:49.213Z,953.57
2022-07-25T02:33:49.239Z,953.54
2022-07-25T02:34:49.204Z,953.54
2022-07-25T02:35:49.199Z,953.54
2022-07-25T02:36:49.206Z,953.55
2022-07-25T02:37:49.190Z,953.52
2022-07-25T02:38:49.186Z,953.5
2022-07-25T02:39:49.181Z,953.51
2022-07-25T02:40:49.177Z,953.52
2022-07-25T02:41:49.170Z,953.54
2022-07-25T02:42:49.167Z,953.52
2022-07-25T02:43:49.163Z,953.53
2022-07-25T02:44:49.157Z,953.49
2022-07-25T02:45:49.178Z,953.49
2022-07-25T02:46:49.151Z,953.51
2022-07-25T02:47:49.144Z,953.53
2022-07-25T02:48:49.216Z,953.52
2022-07-25T02:49:49.133Z,953.5
2022-07-25T02:50:49.130Z,953.47
2022-07-25T02:51:49.123Z,953.5
2022-07-25T02:52:49.122Z,953.47
2022-07-25T02:53:57.996Z,953.5
2022-07-25T02:54:49.111Z,953.5
2022-07-25T02:55:49.107Z,953.52
2022-07-25T02:56:49.102Z,953.53
2022-07-25T02:57:49.101Z,953.52
2022-07-25T02:58:49.094Z,953.48
2022-07-25T02:59:49.088Z,953.5
2022-07-25T03:00:49.121Z,953.49
2022-07-25T03:01:49.154Z,953.51
2022-07-25T03:02:49.074Z,953.47
2022-07-25T03:03:49.117Z,953.48
2022-07-25T03:04:49.065Z,953.5
2022-07-25T03:05:49.073Z,953.46
2022-07-25T03:06:49.055Z,953.49
2022-07-25T03:07:49.053Z,953.45
2022-07-25T03:08:49.044Z,953.48
2022-07-25T03:09:49.042Z,953.43
2022-07-25T03:10:49.037Z,953.47
2022-07-25T03:11:49.033Z,953.52
2022-07-25T03:12:49.027Z,953.47
2022-07-25T03:13:49.022Z,953.48
2022-07-25T03:14:49.017Z,953.49
2022-07-25T03:15:49.016Z,953.44
2022-07-25T03:16:49.066Z,953.42
2022-07-25T03:17:49.005Z,953.45
2022-07-25T03:18:48.999Z,953.45
2022-07-25T03:19:48.995Z,953.44
2022-07-25T03:20:48.988Z,953.41
2022-07-25T03:21:48.987Z,953.46
2022-07-25T03:22:49.105Z,953.39
2022-07-25T03:23:52.369Z,953.4
2022-07-25T03:24:48.970Z,953.36
2022-07-25T03:25:48.966Z,953.38
2022-07-25T03:26:48.963Z,953.4
2022-07-25T03:27:48.956Z,953.41
2022-07-25T03:28:48.951Z,953.41
2022-07-25T03:29:48.947Z,953.35
2022-07-25T03:30:48.942Z,953.36
2022-07-25T03:31:49.005Z,953.37
2022-07-25T03:32:48.931Z,953.31
2022-07-25T03:50:13.631Z,953.14
2022-07-25T03:51:13.625Z,953.15
2022-07-25T03:52:13.615Z,953.16
2022-07-25T03:53:13.607Z,953.16
2022-07-25T03:54:13.599Z,953.16
2022-07-25T03:55:13.590Z,953.19
2022-07-25T03:56:13.585Z,953.18
2022-07-25T03:57:13.577Z,953.2
2022-07-25T03:58:13.571Z,953.2
2022-07-25T03:59:13.563Z,953.16
2022-07-25T04:00:13.560Z,953.14
2022-07-25T04:01:13.593Z,953.2
2022-07-25T04:02:13.630Z,953.14
2022-07-25T04:03:13.537Z,953.19
2022-07-25T04:04:13.535Z,953.13
2022-07-25T04:05:13.526Z,953.16
2022-07-25T04:06:13.521Z,953.18
2022-07-25T04:07:13.514Z,953.18
2022-07-25T04:08:13.510Z,953.18
2022-07-25T04:09:13.502Z,953.22
2022-07-25T04:10:13.498Z,953.18
2022-07-25T04:11:13.490Z,953.2
2022-07-25T04:12:13.486Z,953.21
2022-07-25T04:13:13.480Z,953.18
2022-07-25T04:14:13.478Z,953.19
2022-07-25T04:15:13.470Z,953.15
2022-07-25T04:16:14.862Z,953.17
2022-07-25T04:17:13.547Z,953.16
2022-07-25T04:18:13.454Z,953.14
2022-07-25T04:19:13.447Z,953.13
2022-07-25T04:20:13.446Z,953.15
2022-07-25T04:21:13.440Z,953.15
2022-07-25T04:22:13.435Z,953.13
2022-07-25T04:23:13.428Z,953.1
2022-07-25T04:24:13.423Z,953.12
2022-07-25T04:25:13.417Z,953.09
2022-07-25T04:26:13.413Z,953.12
2022-07-25T04:27:13.408Z,953.11
2022-07-25T04:28:13.408Z,953.1
2022-07-25T04:29:13.399Z,953.09
2022-07-25T04:30:13.393Z,953.08
2022-07-25T04:31:13.419Z,953.06
2022-07-25T04:32:13.424Z,953.07
2022-07-25T04:33:13.378Z,953.09
2022-07-25T04:34:13.375Z,953.04
2022-07-25T04:35:13.370Z,953
2022-07-25T04:36:13.369Z,952.98
2022-07-25T04:37:13.358Z,952.96
2022-07-25T04:38:13.360Z,952.91
2022-07-25T04:39:13.514Z,952.95
2022-07-25T04:40:13.508Z,952.92
2022-07-25T04:41:13.504Z,952.94
2022-07-25T04:42:13.498Z,952.95
2022-07-25T04:43:13.500Z,952.89
2022-07-25T04:44:13.489Z,952.91
2022-07-25T04:45:13.486Z,952.9
2022-07-25T04:46:13.522Z,952.88
2022-07-25T04:47:13.806Z,952.86
2022-07-25T04:48:13.801Z,952.87
2022-07-25T04:49:13.865Z,952.88
2022-07-25T04:50:13.796Z,952.89
2022-07-25T04:51:13.792Z,952.86
2022-07-25T04:52:13.784Z,952.88
2022-07-25T04:53:13.787Z,952.86
2022-07-25T04:54:13.775Z,952.85
2022-07-25T04:55:13.773Z,952.84
2022-07-25T04:56:13.768Z,952.84
2022-07-25T04:57:13.765Z,952.81
2022-07-25T04:58:13.763Z,952.79
2022-07-25T04:59:13.757Z,952.79
2022-07-25T05:00:13.750Z,952.81
2022-07-25T05:01:13.812Z,952.85
2022-07-25T05:02:13.804Z,952.8
2022-07-25T05:03:13.740Z,952.8
2022-07-25T05:04:13.733Z,952.74
2022-07-25T05:05:18.360Z,952.78
2022-07-25T05:06:13.752Z,952.78
2022-07-25T05:07:13.735Z,952.77
2022-07-25T05:08:13.731Z,952.74
2022-07-25T05:09:13.728Z,952.71
2022-07-25T05:10:13.710Z,952.72
2022-07-25T05:11:13.720Z,952.73
2022-07-25T05:12:13.708Z,952.7
2022-07-25T05:13:13.709Z,952.66
2022-07-25T05:14:13.695Z,952.65
2022-07-25T05:15:13.692Z,952.63
2022-07-25T05:16:13.732Z,952.61
2022-07-25T05:17:13.686Z,952.61
2022-07-25T05:18:13.679Z,952.62
2022-07-25T05:19:13.676Z,952.63
2022-07-25T05:20:13.672Z,952.55
2022-07-25T05:21:14.174Z,952.58
2022-07-25T05:22:13.665Z,952.58
2022-07-25T05:23:13.661Z,952.56
2022-07-25T05:24:13.658Z,952.59
2022-07-25T05:25:13.657Z,952.58
2022-07-25T05:26:13.650Z,952.6
2022-07-25T05:27:13.647Z,952.59
2022-07-25T05:28:13.645Z,952.61
2022-07-25T05:29:13.640Z,952.6
2022-07-25T05:30:13.633Z,952.54
2022-07-25T05:31:13.667Z,952.57
2022-07-25T05:32:13.629Z,952.6
2022-07-25T05:33:13.628Z,952.56
2022-07-25T05:34:13.623Z,952.55
2022-07-25T05:35:13.619Z,952.54
2022-07-25T05:36:13.615Z,952.59
2022-07-25T05:37:13.613Z,952.53
2022-07-25T05:38:13.609Z,952.55
2022-07-25T05:39:13.605Z,952.54
2022-07-25T05:40:13.605Z,952.55
2022-07-25T05:41:13.602Z,952.58
2022-07-25T05:42:13.596Z,952.54
2022-07-25T05:43:13.593Z,952.54
2022-07-25T05:44:13.589Z,952.53
2022-07-25T05:45:13.588Z,952.51
2022-07-25T05:46:13.642Z,952.5
2022-07-25T05:47:13.682Z,952.56
2022-07-25T05:48:13.575Z,952.56
2022-07-25T05:49:13.631Z,952.57
2022-07-25T05:50:13.575Z,952.48
2022-07-25T05:51:13.566Z,952.52
2022-07-25T05:52:13.565Z,952.52
2022-07-25T05:53:13.562Z,952.47
2022-07-25T05:54:13.563Z,952.44
2022-07-25T05:55:13.557Z,952.41
2022-07-25T05:56:13.554Z,952.42
2022-07-25T05:57:13.551Z,952.37
2022-07-25T05:58:13.548Z,952.34
2022-07-25T05:59:13.544Z,952.4
2022-07-25T06:00:13.542Z,952.36
2022-07-25T06:01:13.543Z,952.34
2022-07-25T06:02:13.598Z,952.34
2022-07-25T06:03:13.619Z,952.39
2022-07-25T06:04:13.531Z,952.34
2022-07-25T06:05:13.528Z,952.35
2022-07-25T06:06:13.529Z,952.3
2022-07-25T06:07:14.242Z,952.31
2022-07-25T06:08:13.522Z,952.33
2022-07-25T06:09:13.518Z,952.33
2022-07-25T06:10:13.518Z,952.3
2022-07-25T06:11:13.514Z,952.3
2022-07-25T06:12:13.512Z,952.3
2022-07-25T06:13:13.506Z,952.28
2022-07-25T06:14:13.507Z,952.33
2022-07-25T06:15:22.105Z,952.33
2022-07-25T06:16:13.531Z,952.37
2022-07-25T06:17:13.518Z,952.36
2022-07-25T06:18:13.499Z,952.34
2022-07-25T06:19:13.495Z,952.38
2022-07-25T06:20:13.495Z,952.32
2022-07-25T06:21:13.493Z,952.35
2022-07-25T06:22:13.489Z,952.37
2022-07-25T06:23:13.487Z,952.34
2022-07-25T06:24:13.490Z,952.36
2022-07-25T06:25:13.485Z,952.37
2022-07-25T06:26:13.480Z,952.35
2022-07-25T06:27:17.232Z,952.36
2022-07-25T06:28:13.477Z,952.34
2022-07-25T06:29:13.482Z,952.36
2022-07-25T06:30:19.517Z,952.3
2022-07-25T06:31:13.506Z,952.31
2022-07-25T06:32:13.469Z,952.25
2022-07-25T06:33:13.467Z,952.3
2022-07-25T06:34:13.468Z,952.29
2022-07-25T06:35:13.466Z,952.29
2022-07-25T06:36:13.463Z,952.28
2022-07-25T06:37:13.461Z,952.25
2022-07-25T06:38:13.459Z,952.23
2022-07-25T06:39:14.474Z,952.27
2022-07-25T06:40:13.455Z,952.29
2022-07-25T06:41:13.455Z,952.2
2022-07-25T06:42:13.451Z,952.16
2022-07-25T06:43:13.453Z,952.14
2022-07-25T06:44:13.453Z,952.18
2022-07-25T06:45:13.448Z,952.15
2022-07-25T06:46:13.464Z,952.22
2022-07-25T06:47:13.448Z,952.16
2022-07-25T06:48:13.459Z,952.18
2022-07-25T06:49:13.499Z,952.11
2022-07-25T06:50:13.438Z,952.21
2022-07-25T06:51:13.441Z,952.16
2022-07-25T06:52:13.440Z,952.25
2022-07-25T06:53:13.438Z,952.2
2022-07-25T06:54:13.434Z,952.23
2022-07-25T06:55:13.436Z,952.23
2022-07-25T06:56:17.551Z,952.21
2022-07-25T06:57:13.437Z,952.26
2022-07-25T06:58:13.433Z,952.19
2022-07-25T06:59:13.441Z,952.24
2022-07-25T07:00:13.438Z,952.21
2022-07-25T07:01:13.492Z,952.28
2022-07-25T07:02:13.437Z,952.28
2022-07-25T07:03:13.524Z,952.31
2022-07-25T07:04:13.444Z,952.34
2022-07-25T07:05:13.445Z,952.35
2022-07-25T07:06:13.447Z,952.3
2022-07-25T07:07:13.453Z,952.36
2022-07-25T07:08:13.457Z,952.39
2022-07-25T07:09:13.460Z,952.35
2022-07-25T07:10:13.466Z,952.34
2022-07-25T07:11:13.470Z,952.33
2022-07-25T07:12:13.470Z,952.39
2022-07-25T07:13:13.478Z,952.33
2022-07-25T07:14:13.480Z,952.34
2022-07-25T07:15:13.484Z,952.36
2022-07-25T07:16:13.533Z,952.33
2022-07-25T07:17:13.497Z,952.34
2022-07-25T07:18:13.503Z,952.39
2022-07-25T07:19:13.508Z,952.33
2022-07-25T07:20:13.515Z,952.38
2022-07-25T07:21:16.176Z,952.41
2022-07-25T07:22:13.642Z,952.4
2022-07-25T07:23:16.579Z,952.41
2022-07-25T07:24:23.609Z,952.39
2022-07-25T07:25:13.549Z,952.42
2022-07-25T07:26:13.560Z,952.46
2022-07-25T07:27:13.569Z,952.44
2022-07-25T07:28:13.571Z,952.51
2022-07-25T07:29:13.578Z,952.46
2022-07-25T07:30:13.587Z,952.36
2022-07-25T07:31:25.826Z,952.4
2022-07-25T07:32:25.752Z,952.35
2022-07-25T07:33:25.755Z,952.42
2022-07-25T07:34:25.766Z,952.39
2022-07-25T07:35:27.299Z,952.36
2022-07-25T07:36:25.783Z,952.4
2022-07-25T07:37:25.791Z,952.34
2022-07-25T07:38:25.801Z,952.29
2022-07-25T07:39:25.806Z,952.34
2022-07-25T07:40:25.822Z,952.36
2022-07-25T07:41:25.826Z,952.39
2022-07-25T07:42:25.836Z,952.38
2022-07-25T07:43:29.798Z,952.36
2022-07-25T07:44:25.855Z,952.31
2022-07-25T07:45:25.866Z,952.36
2022-07-25T07:46:25.956Z,952.39
2022-07-25T07:47:25.880Z,952.35
2022-07-25T07:48:25.895Z,952.42
2022-07-25T07:49:25.929Z,952.42
2022-07-25T07:50:25.923Z,952.39
2022-07-25T07:51:25.923Z,952.39
2022-07-25T07:52:25.934Z,952.34
2022-07-25T07:53:25.944Z,952.4
2022-07-25T07:54:25.953Z,952.4
2022-07-25T07:55:26.603Z,952.36
2022-07-25T07:56:26.613Z,952.29
2022-07-25T07:57:26.620Z,952.26
2022-07-25T07:58:26.631Z,952.12
2022-07-25T07:59:26.639Z,952.11
2022-07-25T08:00:26.652Z,952.06
2022-07-25T08:01:26.689Z,952.08
2022-07-25T08:02:26.744Z,952.1
2022-07-25T08:03:26.759Z,952.06
2022-07-25T08:04:26.692Z,952.09
2022-07-25T08:05:26.701Z,952.05
2022-07-25T08:06:26.706Z,952.06
2022-07-25T08:07:26.717Z,952.06
2022-07-25T08:08:31.034Z,952.07
2022-07-25T08:09:26.734Z,952.02
2022-07-25T08:10:26.743Z,952.08
2022-07-25T08:11:26.755Z,952.14
2022-07-25T08:12:26.760Z,952.05
2022-07-25T08:13:26.770Z,952.08
2022-07-25T08:14:26.776Z,952.06
2022-07-25T08:15:26.789Z,952.04
2022-07-25T08:16:26.844Z,952.08
2022-07-25T08:17:28.748Z,952.14
2022-07-25T08:18:26.810Z,952.08
2022-07-25T08:19:26.817Z,952.07
2022-07-25T08:20:37.765Z,952.05
2022-07-25T08:21:26.833Z,952.01
2022-07-25T08:22:26.836Z,952.09
2022-07-25T08:23:26.845Z,952.03
2022-07-25T08:24:26.857Z,952
2022-07-25T08:25:26.859Z,951.99
2022-07-25T08:26:26.866Z,952.02
2022-07-25T08:27:26.873Z,952.01
2022-07-25T08:28:26.880Z,951.94
2022-07-25T08:29:28.295Z,951.98
2022-07-25T08:30:26.908Z,951.99
2022-07-25T08:31:26.935Z,951.98
2022-07-25T08:32:26.901Z,952.01
2022-07-25T08:33:26.912Z,952.03
2022-07-25T08:34:26.913Z,952.01
2022-07-25T08:35:26.920Z,952.02
2022-07-25T08:36:27.012Z,951.95
2022-07-25T08:37:26.936Z,951.96
2022-07-25T08:38:26.946Z,951.98
2022-07-25T08:39:26.945Z,951.89
2022-07-25T08:40:26.948Z,951.93
2022-07-25T08:41:27.016Z,951.9
2022-07-25T08:42:26.958Z,951.97
2022-07-25T08:43:26.967Z,951.94
2022-07-25T08:44:26.971Z,951.9
2022-07-25T08:45:26.977Z,951.91
2022-07-25T08:46:27.072Z,951.9
2022-07-25T08:47:26.985Z,951.89
2022-07-25T08:48:27.099Z,951.88
2022-07-25T08:49:26.998Z,951.87
2022-07-25T08:50:26.999Z,951.84
2022-07-25T08:51:27.014Z,951.78
2022-07-25T08:52:27.010Z,951.81
2022-07-25T08:53:35.182Z,951.76
2022-07-25T08:54:27.024Z,951.81
2022-07-25T08:55:27.025Z,951.8
2022-07-25T08:56:27.028Z,951.78
2022-07-25T08:57:27.033Z,951.75
2022-07-25T08:58:27.040Z,951.75
2022-07-25T08:59:27.044Z,951.78
2022-07-25T09:00:27.049Z,951.72
2022-07-25T09:01:30.334Z,951.74
2022-07-25T09:02:27.190Z,951.72
2022-07-25T09:03:27.135Z,951.7
2022-07-25T09:04:27.070Z,951.73
2022-07-25T09:05:27.094Z,951.69
2022-07-25T09:06:27.158Z,951.74
2022-07-25T09:07:27.158Z,951.73
2022-07-25T09:08:27.162Z,951.74
2022-07-25T09:09:27.170Z,951.76
2022-07-25T09:10:27.192Z,951.7
2022-07-25T09:11:27.449Z,951.64
2022-07-25T09:12:27.184Z,951.66
2022-07-25T09:13:27.187Z,951.74
2022-07-25T09:14:27.202Z,951.68
2022-07-25T09:15:27.198Z,951.56
2022-07-25T09:16:27.249Z,951.67
2022-07-25T09:17:27.206Z,951.62
2022-07-25T09:18:27.214Z,951.62
2022-07-25T09:19:27.215Z,951.53
2022-07-25T09:20:27.222Z,951.62
2022-07-25T09:21:27.226Z,951.6
2022-07-25T09:22:27.231Z,951.64
2022-07-25T09:23:27.237Z,951.59
2022-07-25T09:24:27.241Z,951.6
2022-07-25T09:25:27.245Z,951.6
2022-07-25T09:26:27.251Z,951.52
2022-07-25T09:27:27.252Z,951.58
2022-07-25T09:28:27.261Z,951.46
2022-07-25T09:29:27.263Z,951.51
2022-07-25T09:30:27.271Z,951.52
2022-07-25T09:31:27.325Z,951.47
2022-07-25T09:32:27.279Z,951.43
2022-07-25T09:33:27.281Z,951.41
2022-07-25T09:34:27.286Z,951.37
2022-07-25T09:35:27.291Z,951.38
2022-07-25T09:36:27.307Z,951.36
2022-07-25T09:37:27.317Z,951.38
2022-07-25T09:38:27.308Z,951.4
2022-07-25T09:39:27.310Z,951.37
2022-07-25T09:40:27.318Z,951.37
2022-07-25T09:41:27.322Z,951.44
2022-07-25T09:42:27.328Z,951.44
2022-07-25T09:43:27.329Z,951.41
2022-07-25T09:44:27.336Z,951.39
2022-07-25T09:45:31.383Z,951.38
2022-07-25T09:46:27.396Z,951.36
2022-07-25T09:47:27.353Z,951.38
2022-07-25T09:48:27.390Z,951.37
2022-07-25T09:49:27.361Z,951.3
2022-07-25T09:50:27.363Z,951.33
2022-07-25T09:51:27.370Z,951.27
2022-07-25T09:52:27.378Z,951.25
2022-07-25T09:53:27.378Z,951.27
2022-07-25T09:54:27.383Z,951.2
2022-07-25T09:55:27.392Z,951.32
2022-07-25T09:56:27.394Z,951.37
2022-07-25T09:57:27.400Z,951.27
2022-07-25T09:58:27.402Z,951.25
2022-07-25T09:59:27.408Z,951.2
2022-07-25T10:00:27.411Z,951.22
2022-07-25T10:01:27.470Z,951.17
2022-07-25T10:02:27.513Z,951.22
2022-07-25T10:03:27.427Z,951.17
2022-07-25T10:04:27.430Z,951.15
2022-07-25T10:05:27.437Z,951.17
2022-07-25T10:06:27.441Z,951.23
2022-07-25T10:07:31.258Z,951.15
2022-07-25T10:08:27.578Z,951.15
2022-07-25T10:09:27.585Z,951.1
2022-07-25T10:10:27.584Z,951.15
2022-07-25T10:11:27.598Z,951.06
2022-07-25T10:12:27.593Z,951.11
2022-07-25T10:13:27.604Z,951.02
2022-07-25T10:14:27.605Z,951.07
2022-07-25T10:15:27.611Z,951.1
2022-07-25T10:16:27.682Z,951.07
2022-07-25T10:17:27.618Z,951.02
2022-07-25T10:18:27.636Z,951.03
2022-07-25T10:19:27.628Z,950.99
2022-07-25T10:20:27.632Z,951.05
2022-07-25T10:21:28.618Z,951
2022-07-25T10:22:46.677Z,951.03
2022-07-25T10:23:27.647Z,951.02
2022-07-25T10:24:27.654Z,950.99
2022-07-25T10:25:27.660Z,951.08
2022-07-25T10:26:27.661Z,950.98
2022-07-25T10:27:27.671Z,950.96
2022-07-25T10:28:27.674Z,950.92
2022-07-25T10:29:27.678Z,950.91
2022-07-25T10:30:27.708Z,950.88
2022-07-25T10:31:27.765Z,950.86
2022-07-25T10:32:27.691Z,950.92
2022-07-25T10:33:27.701Z,950.9
2022-07-25T10:34:27.702Z,950.9
2022-07-25T10:35:27.710Z,950.88
2022-07-25T10:36:27.713Z,950.83
2022-07-25T10:37:27.718Z,950.83
2022-07-25T10:38:27.723Z,950.83
2022-07-25T10:39:27.728Z,950.83
2022-07-25T10:40:27.735Z,950.8
2022-07-25T10:41:27.738Z,950.75
2022-07-25T10:42:27.746Z,950.75
2022-07-25T10:43:27.748Z,950.7
2022-07-25T10:44:27.756Z,950.71
2022-07-25T10:45:27.763Z,950.67
2022-07-25T10:46:27.783Z,950.72
2022-07-25T10:47:27.770Z,950.61
2022-07-25T10:48:27.858Z,950.48
2022-07-25T10:49:32.011Z,950.54
2022-07-25T10:50:46.366Z,950.48
2022-07-25T10:51:27.790Z,950.56
2022-07-25T10:52:27.834Z,950.53
2022-07-25T10:53:27.804Z,950.59
2022-07-25T10:54:27.810Z,950.56
2022-07-25T10:55:27.814Z,950.56
2022-07-25T10:56:27.819Z,950.5
2022-07-25T10:57:31.685Z,950.5
2022-07-25T10:58:27.833Z,950.47
2022-07-25T10:59:27.834Z,950.49
2022-07-25T11:00:27.841Z,950.42
2022-07-25T11:01:27.887Z,950.39
2022-07-25T11:02:27.927Z,950.36
2022-07-25T11:03:27.857Z,950.37
2022-07-25T11:04:27.863Z,950.3
2022-07-25T11:05:27.866Z,950.34
2022-07-25T11:06:27.873Z,950.31
2022-07-25T11:07:27.876Z,950.27
2022-07-25T11:08:27.884Z,950.25
2022-07-25T11:09:28.328Z,950.27
2022-07-25T11:10:27.896Z,950.25
2022-07-25T11:11:27.899Z,950.19
2022-07-25T11:12:27.905Z,950.2
2022-07-25T11:13:27.909Z,950.19
2022-07-25T11:14:27.919Z,950.23
2022-07-25T11:15:27.918Z,950.25
2022-07-25T11:16:27.962Z,950.21
2022-07-25T11:17:27.931Z,950.16
2022-07-25T11:18:27.938Z,950.13
2022-07-25T11:19:27.945Z,950.12
2022-07-25T11:20:27.952Z,950.15
2022-07-25T11:21:27.953Z,950.13
2022-07-25T11:22:27.958Z,950.13
2022-07-25T11:23:27.964Z,950.04
2022-07-25T11:24:27.970Z,950.02
2022-07-25T11:25:27.973Z,950.01
2022-07-25T11:26:27.981Z,950.03
2022-07-25T11:27:27.991Z,950.06
2022-07-25T11:28:27.993Z,950.02
2022-07-25T11:29:28.005Z,950.02
2022-07-25T11:30:28.004Z,949.98
2022-07-25T11:31:28.041Z,949.96
2022-07-25T11:32:28.011Z,949.93
2022-07-25T11:33:28.019Z,949.98
2022-07-25T11:34:28.026Z,949.95
2022-07-25T11:35:28.034Z,949.98
2022-07-25T11:36:28.038Z,949.9
2022-07-25T11:37:28.042Z,949.84
2022-07-25T11:38:28.047Z,949.86
2022-07-25T11:39:28.052Z,949.88
2022-07-25T11:40:28.055Z,949.82
2022-07-25T11:41:28.067Z,949.8
2022-07-25T11:42:28.067Z,949.78
2022-07-25T11:43:28.073Z,949.78
2022-07-25T11:44:28.080Z,949.8
2022-07-25T11:45:28.137Z,949.8
2022-07-25T11:46:28.136Z,949.75
2022-07-25T11:47:28.167Z,949.75
2022-07-25T11:48:28.112Z,949.75
2022-07-25T11:49:28.107Z,949.7
2022-07-25T11:50:28.112Z,949.78
2022-07-25T11:51:28.119Z,949.7
2022-07-25T11:52:28.155Z,949.67
2022-07-25T11:53:28.129Z,949.64
2022-07-25T11:54:28.134Z,949.62
2022-07-25T11:55:28.145Z,949.64
2022-07-25T11:56:44.028Z,949.66
2022-07-25T11:57:28.154Z,949.61
2022-07-25T11:58:28.160Z,949.6
2022-07-25T11:59:28.166Z,949.61
2022-07-25T12:00:28.166Z,949.57
2022-07-25T12:01:28.175Z,949.59
2022-07-25T12:02:28.374Z,949.6
2022-07-25T12:03:28.230Z,949.6
2022-07-25T12:04:28.197Z,949.56
2022-07-25T12:05:28.199Z,949.53
2022-07-25T12:06:28.205Z,949.51
2022-07-25T12:07:28.210Z,949.46
2022-07-25T12:08:28.217Z,949.51
2022-07-25T12:09:28.224Z,949.49
2022-07-25T12:10:28.225Z,949.39
2022-07-25T12:11:28.233Z,949.42
2022-07-25T12:12:28.236Z,949.38
2022-07-25T12:13:28.244Z,949.42
2022-07-25T12:14:31.178Z,949.44
2022-07-25T12:15:28.258Z,949.44
2022-07-25T12:16:28.312Z,949.43
2022-07-25T12:17:28.270Z,949.4
2022-07-25T12:18:28.272Z,949.35
2022-07-25T12:19:28.282Z,949.36
2022-07-25T12:20:28.285Z,949.36
2022-07-25T12:21:28.293Z,949.42
2022-07-25T12:22:28.298Z,949.42
2022-07-25T12:23:28.303Z,949.4
2022-07-25T12:24:28.313Z,949.41
2022-07-25T12:25:30.947Z,949.41
2022-07-25T12:26:28.323Z,949.42
2022-07-25T12:27:28.328Z,949.37
2022-07-25T12:28:28.363Z,949.4
2022-07-25T12:29:28.339Z,949.32
2022-07-25T12:30:28.384Z,949.33
2022-07-25T12:31:28.384Z,949.35
2022-07-25T12:32:28.359Z,949.3
2022-07-25T12:33:28.362Z,949.32
2022-07-25T12:34:28.371Z,949.29
2022-07-25T12:35:28.384Z,949.31
2022-07-25T12:36:28.381Z,949.25
2022-07-25T12:37:28.387Z,949.26
2022-07-25T12:38:28.395Z,949.24
2022-07-25T12:39:28.398Z,949.22
2022-07-25T12:40:28.405Z,949.22
2022-07-25T12:41:28.412Z,949.25
2022-07-25T12:42:28.421Z,949.25
2022-07-25T12:43:28.422Z,949.21
2022-07-25T12:44:29.161Z,949.24
2022-07-25T12:45:29.215Z,949.24
2022-07-25T12:46:29.205Z,949.13
2022-07-25T12:47:29.166Z,949.11
2022-07-25T12:48:29.203Z,949.1